Time;durP1;ratioP1;P1;durP2;ratioP2;P2;SDS_P1;SDS_P2;PMS_P1;PMS_P2;Temp;Humidity;BMP_temperature;BMP_pressure;BME280_temperature;BME280_humidity;BME280_pressure;Samples;Min_cycle;Max_cycle;Signal;HPM_P1;HPM_P2
2022/07/04 06:44:52;;;;;;;;;1.00;1.00;;;;;21.24;52.44;101909.91;4997468;27;45813;-70
2022/07/04 06:47:17;;;;;;;;;1.00;1.00;;;;;21.37;52.50;101910.63;4981981;27;45722;-69
2022/07/04 06:49:42;;;;;;;;;4.00;2.00;;;;;21.61;52.86;101908.75;4988481;27;45546;-70
2022/07/04 06:52:08;;;;;;;;;3.00;2.00;;;;;21.87;51.90;101901.19;4975031;28;47824;-70
2022/07/04 06:54:33;;;;;;;;;1.67;1.67;;;;;22.19;52.21;101921.06;4979685;27;45420;-70
2022/07/04 06:56:58;;;;;;;;;1.00;1.00;;;;;22.53;51.28;101928.09;4979910;27;47054;-71
2022/07/04 06:59:24;;;;;;;;;2.00;2.00;;;;;22.86;51.09;101931.59;4973664;28;46143;-71
2022/07/04 07:01:49;;;;;;;;;2.00;2.00;;;;;23.19;50.69;101924.19;4972484;27;45491;-71
2022/07/04 07:04:14;;;;;;;;;2.00;2.00;;;;;23.52;50.28;101930.28;4975957;28;66275;-71
2022/07/04 07:06:40;;;;;;;;;1.33;1.00;;;;;23.80;49.95;101930.44;4971888;27;45590;-71
2022/07/04 07:09:05;;;;;;;;;2.00;2.00;;;;;24.07;49.23;101926.16;4980110;28;45450;-71
2022/07/04 07:11:30;;;;;;;;;0.00;0.00;;;;;24.33;48.91;101930.19;5001452;27;45657;-70
2022/07/04 07:13:55;;;;;;;;;1.00;1.00;;;;;24.55;48.42;101928.13;4976678;28;55476;-70
2022/07/04 07:16:22;;;;;;;;;2.00;2.00;;;;;24.76;48.15;101933.34;5000933;27;45411;-70
2022/07/04 07:18:49;;;;;;;;;2.00;2.00;;;;;24.96;47.68;101927.88;4982396;28;45459;-70
2022/07/04 07:21:14;;;;;;;;;2.00;2.00;;;;;25.17;47.92;101929.50;4974193;28;45562;-70
2022/07/04 07:23:41;;;;;;;;;2.00;2.00;;;;;25.33;46.90;101926.09;4984650;27;46018;-70
2022/07/04 07:26:07;;;;;;;;;1.00;1.00;;;;;25.48;46.84;101930.03;4982354;28;45438;-72
2022/07/04 07:28:33;;;;;;;;;1.00;1.00;;;;;25.64;46.25;101929.38;4969532;28;45445;-71
2022/07/04 07:30:58;;;;;;;;;2.00;2.00;;;;;25.66;44.63;101921.03;4972642;28;45615;-71
2022/07/04 07:33:23;;;;;;;;;1.00;1.00;;;;;25.63;44.58;101915.94;4973172;27;45743;-71
2022/07/04 07:35:48;;;;;;;;;1.33;1.33;;;;;25.60;44.27;101917.09;4971325;28;50556;-72
2022/07/04 07:38:14;;;;;;;;;1.00;1.00;;;;;25.55;44.10;101916.72;4968691;27;45421;-71
2022/07/04 07:40:40;;;;;;;;;1.67;1.67;;;;;25.52;43.62;101906.97;4970934;28;45521;-72
2022/07/04 07:43:06;;;;;;;;;4.00;2.00;;;;;25.52;43.47;101906.09;4981435;28;47151;-72
2022/07/04 07:45:31;;;;;;;;;2.00;2.00;;;;;25.51;43.45;101904.41;4975042;27;45331;-70
2022/07/04 07:47:57;;;;;;;;;1.00;1.00;;;;;25.50;43.46;101899.97;4982125;28;45372;-70
2022/07/04 07:50:22;;;;;;;;;2.00;2.00;;;;;25.49;43.40;101903.69;4975114;28;45537;-70
2022/07/04 07:52:47;;;;;;;;;1.00;1.00;;;;;25.48;43.57;101908.28;4976218;27;45744;-70
2022/07/04 07:55:13;;;;;;;;;3.67;1.00;;;;;25.49;42.92;101906.41;4978435;27;51342;-70
2022/07/04 07:57:38;;;;;;;;;2.00;2.00;;;;;25.52;41.89;101908.81;4975358;28;45938;-69
2022/07/04 08:00:05;;;;;;;;;1.00;1.00;;;;;25.53;41.88;101914.13;4970296;28;54968;-69
2022/07/04 08:05:19;;;;;;;;;2.00;2.00;;;;;25.55;42.81;101902.22;5030488;28;45529;-70
2022/07/04 08:07:44;;;;;;;;;1.67;1.67;;;;;25.51;42.30;101899.81;5031135;28;45559;-69
2022/07/04 08:10:09;;;;;;;;;3.00;2.67;;;;;25.49;42.42;101898.25;5029265;28;45623;-70
2022/07/04 08:12:35;;;;;;;;;2.33;2.33;;;;;25.47;42.28;101894.84;5028392;28;47034;-70
2022/07/04 08:15:01;;;;;;;;;2.00;2.00;;;;;25.47;41.98;101894.84;5025051;28;45588;-70
2022/07/04 08:17:28;;;;;;;;;3.00;3.00;;;;;25.49;42.47;101888.25;5025375;28;45450;-72
2022/07/04 08:19:53;;;;;;;;;1.67;1.67;;;;;25.47;41.68;101889.41;5024432;28;45613;-76
2022/07/04 08:22:18;;;;;;;;;2.00;2.00;;;;;25.46;41.35;101893.13;5025484;28;46036;-77
2022/07/04 08:24:44;;;;;;;;;2.33;2.33;;;;;25.45;41.85;101889.56;5027191;28;45517;-74
2022/07/04 08:27:10;;;;;;;;;4.00;2.33;;;;;25.44;40.92;101887.00;5025770;28;45935;-75
2022/07/04 08:29:36;;;;;;;;;1.67;1.67;;;;;25.44;40.89;101885.13;5025101;28;45587;-75
2022/07/04 08:32:01;;;;;;;;;4.00;2.00;;;;;25.45;40.64;101885.97;5026027;28;45735;-75
2022/07/04 08:34:27;;;;;;;;;2.00;2.00;;;;;25.49;40.58;101885.53;5021540;28;45482;-75
2022/07/04 08:36:52;;;;;;;;;1.33;1.33;;;;;25.52;40.15;101878.94;5024538;28;46331;-74
2022/07/04 08:39:17;;;;;;;;;3.00;3.00;;;;;25.55;39.80;101884.09;5015809;28;45469;-75
2022/07/04 08:41:43;;;;;;;;;2.00;2.00;;;;;25.60;39.91;101883.63;5009066;28;46126;-74
2022/07/04 08:44:11;;;;;;;;;2.33;2.33;;;;;25.65;39.47;101873.13;4957079;28;45480;-72
2022/07/04 08:46:39;;;;;;;;;3.00;2.00;;;;;25.73;39.73;101875.06;4951412;28;45304;-72
2022/07/04 08:49:17;;;;;;;;;2.00;2.00;;;;;25.83;39.68;101872.28;4952330;28;46059;-71
2022/07/04 08:51:58;;;;;;;;;2.33;2.33;;;;;25.94;39.56;101869.28;4950718;28;45574;-72
2022/07/04 08:59:55;;;;;;;;;2.00;2.00;;;;;26.24;40.00;101871.72;4958695;28;45337;-72
2022/07/04 09:02:23;;;;;;;;;3.00;2.00;;;;;26.31;38.96;101862.78;4953693;28;45475;-72
2022/07/04 09:04:49;;;;;;;;;8.33;5.00;;;;;26.37;38.68;101865.88;4959981;28;45706;-72
2022/07/04 09:07:15;;;;;;;;;5.33;4.00;;;;;26.44;38.95;101858.78;4960223;28;45379;-72
2022/07/04 09:09:41;;;;;;;;;2.67;2.67;;;;;26.51;38.62;101859.84;4962527;28;45637;-72
2022/07/04 09:12:10;;;;;;;;;3.00;3.00;;;;;26.56;37.95;101859.34;4961423;28;52201;-72
2022/07/04 09:14:36;;;;;;;;;2.33;2.33;;;;;26.59;37.90;101859.03;4953794;28;45497;-72
2022/07/04 09:17:02;;;;;;;;;2.33;2.00;;;;;26.61;38.40;101859.75;4956992;28;45493;-72
2022/07/04 09:19:27;;;;;;;;;3.00;3.00;;;;;26.65;37.69;101861.09;4962662;28;45643;-72
2022/07/04 09:21:52;;;;;;;;;1.00;1.00;;;;;26.69;37.96;101851.59;4962820;28;45920;-72
2022/07/04 09:24:54;;;;;;;;;3.00;1.33;;;;;26.72;37.45;101846.84;4963234;28;45823;-72
2022/07/04 09:27:35;;;;;;;;;2.67;2.00;;;;;26.72;37.45;101850.41;4957325;28;47544;-71
2022/07/04 09:30:01;;;;;;;;;1.33;1.00;;;;;26.74;37.59;101855.69;4960423;28;45973;-71
2022/07/04 09:32:40;;;;;;;;;3.67;2.00;;;;;26.75;36.99;101843.78;4958643;28;45572;-72
2022/07/04 09:35:12;;;;;;;;;3.00;3.00;;;;;26.77;37.18;101847.22;4956699;28;47236;-72
2022/07/04 09:37:45;;;;;;;;;3.33;2.00;;;;;26.77;37.79;101844.47;4956681;28;45526;-75
2022/07/04 09:40:20;;;;;;;;;5.67;4.00;;;;;26.79;37.72;101845.16;4953102;28;45601;-74
2022/07/04 09:42:45;;;;;;;;;5.67;2.00;;;;;26.82;37.14;101850.28;4964220;28;45450;-73
2022/07/04 09:45:11;;;;;;;;;4.00;3.00;;;;;26.88;37.54;101862.38;4963678;28;47455;-74
2022/07/04 09:47:39;;;;;;;;;4.00;1.00;;;;;26.91;37.36;101851.16;4962386;28;45569;-75
2022/07/04 09:50:14;;;;;;;;;1.33;1.33;;;;;26.94;36.87;101850.88;4967362;28;45455;-75
2022/07/04 09:52:45;;;;;;;;;2.33;2.33;;;;;26.98;37.41;101843.22;4958148;28;46998;-74
2022/07/04 09:55:11;;;;;;;;;2.33;2.33;;;;;27.00;37.06;101842.03;4953922;28;45866;-72
2022/07/04 09:57:36;;;;;;;;;2.00;2.00;;;;;26.99;36.73;101843.06;4962299;28;45457;-72
2022/07/04 10:00:23;;;;;;;;;1.33;1.33;;;;;26.99;37.43;101842.19;4968220;28;45530;-72
2022/07/04 10:02:50;;;;;;;;;3.00;3.00;;;;;26.99;37.00;101845.78;4958729;28;46270;-72
2022/07/04 10:05:26;;;;;;;;;2.00;2.00;;;;;27.01;37.03;101841.00;4965801;28;45589;-72
2022/07/04 10:07:54;;;;;;;;;3.00;1.33;;;;;27.02;36.90;101842.72;4961665;28;45563;-72
2022/07/04 10:10:25;;;;;;;;;3.00;3.00;;;;;27.04;37.32;101848.00;4968915;28;56741;-72
2022/07/04 10:12:55;;;;;;;;;2.00;2.00;;;;;27.05;37.26;101842.38;4962576;28;46465;-72
2022/07/04 10:15:21;;;;;;;;;1.33;1.33;;;;;27.08;37.66;101844.78;4965542;28;45451;-72
2022/07/04 10:17:46;;;;;;;;;1.00;1.00;;;;;27.10;37.83;101839.19;4962942;28;45344;-72
2022/07/04 10:20:13;;;;;;;;;2.33;2.00;;;;;27.13;37.71;101843.44;4954780;28;45494;-72
2022/07/04 10:22:39;;;;;;;;;2.33;2.33;;;;;27.16;37.96;101852.13;4959595;28;46235;-72
2022/07/04 10:25:07;;;;;;;;;2.00;2.00;;;;;27.18;37.81;101847.34;4958379;28;45551;-71
2022/07/04 10:27:32;;;;;;;;;2.00;2.00;;;;;27.19;37.84;101845.50;4951766;28;45561;-71
2022/07/04 10:29:59;;;;;;;;;2.00;2.00;;;;;27.21;37.09;101849.75;4965607;28;45383;-72
2022/07/04 10:32:27;;;;;;;;;5.00;2.00;;;;;27.21;37.07;101848.88;4964375;28;46153;-72
2022/07/04 10:34:52;;;;;;;;;2.33;2.33;;;;;27.21;37.43;101848.88;4969058;28;45386;-72
2022/07/04 10:37:18;;;;;;;;;2.00;2.00;;;;;27.22;37.07;101847.91;4959311;28;45351;-72
2022/07/04 10:39:43;;;;;;;;;1.00;1.00;;;;;27.22;37.13;101848.72;4955104;28;45658;-72
2022/07/04 10:42:08;;;;;;;;;1.00;1.00;;;;;27.22;37.21;101842.44;4964759;28;45502;-72
2022/07/04 10:44:37;;;;;;;;;1.67;1.00;;;;;27.23;36.72;101847.69;4959140;28;45739;-73
2022/07/04 10:47:04;;;;;;;;;3.33;1.00;;;;;27.20;37.08;101826.25;4960216;28;45503;-72
2022/07/04 10:49:31;;;;;;;;;2.00;2.00;;;;;27.23;37.02;101833.25;4958335;28;45652;-72
2022/07/04 10:52:12;;;;;;;;;5.00;3.00;;;;;27.23;36.27;101831.34;4964226;28;46915;-72
2022/07/04 10:54:40;;;;;;;;;4.67;3.00;;;;;27.23;36.50;101831.34;4954087;28;45388;-72
2022/07/04 10:57:15;;;;;;;;;2.33;2.33;;;;;27.25;36.75;101835.81;4950396;28;52101;-72
2022/07/04 11:00:03;;;;;;;;;2.00;2.00;;;;;27.23;36.86;101836.81;4959613;28;45534;-72
2022/07/04 11:02:39;;;;;;;;;2.00;2.00;;;;;27.23;36.31;101830.50;4957547;28;45506;-72
2022/07/04 11:05:09;;;;;;;;;1.00;1.00;;;;;27.25;36.98;101827.63;4965124;28;46407;-72
2022/07/04 11:07:37;;;;;;;;;2.00;2.00;;;;;27.27;36.92;101833.75;4957182;28;45509;-71
2022/07/04 11:12:54;;;;;;;;;1.33;1.33;;;;;27.28;36.80;101825.41;4961110;28;45991;-71
2022/07/04 11:15:32;;;;;;;;;2.00;2.00;;;;;27.26;36.77;101821.97;4959356;28;45467;-72
2022/07/04 11:18:10;;;;;;;;;2.00;2.00;;;;;27.26;36.86;101821.97;4961470;28;45868;-72
2022/07/04 11:20:38;;;;;;;;;2.00;2.00;;;;;27.28;36.78;101821.81;4987816;28;45561;-72
2022/07/04 11:23:24;;;;;;;;;2.67;2.67;;;;;27.29;36.90;101816.22;4953266;28;46926;-72
2022/07/04 11:25:50;;;;;;;;;1.00;1.00;;;;;27.32;36.62;101820.47;4957338;28;45481;-72
2022/07/04 11:28:28;;;;;;;;;3.00;1.33;;;;;27.32;36.68;101815.88;4969851;28;45660;-72
2022/07/04 11:30:56;;;;;;;;;2.00;1.67;;;;;27.32;36.08;101815.03;4967984;28;45591;-72
2022/07/04 11:33:24;;;;;;;;;3.00;3.00;;;;;27.30;36.02;101812.47;4960690;28;46477;-72
2022/07/04 11:36:05;;;;;;;;;2.67;2.67;;;;;27.28;36.10;101811.78;4965059;28;45486;-72
2022/07/04 11:38:48;;;;;;;;;2.67;2.67;;;;;27.26;36.42;101807.53;4966810;28;45504;-72
2022/07/04 11:46:46;;;;;;;;;1.67;1.67;;;;;27.31;36.82;101796.97;4962188;28;45780;-72
2022/07/04 11:49:12;;;;;;;;;2.00;2.00;;;;;27.32;36.12;101791.34;4956021;28;51039;-73
2022/07/04 11:51:47;;;;;;;;;4.00;4.00;;;;;27.33;36.34;101789.47;4954439;28;45587;-72
2022/07/04 11:54:13;;;;;;;;;2.67;2.67;;;;;27.36;36.24;101789.13;4964489;28;46398;-72
2022/07/04 11:56:39;;;;;;;;;2.00;2.00;;;;;27.41;36.84;101789.47;4964178;28;45434;-73
2022/07/04 11:59:12;;;;;;;;;1.00;1.00;;;;;27.45;35.97;101785.38;4960510;28;45601;-73
2022/07/04 12:01:38;;;;;;;;;2.33;2.33;;;;;27.49;36.25;101780.44;4973939;28;45651;-73
2022/07/04 12:04:19;;;;;;;;;2.00;2.00;;;;;27.53;35.83;101778.22;4955527;28;45470;-73
2022/07/04 12:06:47;;;;;;;;;2.00;2.00;;;;;27.57;36.28;101775.00;4956868;28;45462;-73
2022/07/04 12:09:13;;;;;;;;;2.00;2.00;;;;;27.62;35.93;101774.50;4968877;28;45403;-73
2022/07/04 12:11:53;;;;;;;;;3.00;1.00;;;;;27.67;36.22;101765.81;4971841;28;45557;-73
2022/07/04 12:14:18;;;;;;;;;1.00;1.00;;;;;27.69;35.90;101764.63;4964378;28;46206;-73
2022/07/04 12:16:44;;;;;;;;;3.00;3.00;;;;;27.72;36.25;101760.69;4961612;28;45502;-72
2022/07/04 12:19:10;;;;;;;;;3.00;3.00;;;;;27.77;35.83;101762.88;4966470;28;45273;-73
2022/07/04 12:21:36;;;;;;;;;1.00;1.00;;;;;27.81;36.48;101756.06;4965551;28;45880;-72
2022/07/04 12:24:04;;;;;;;;;3.67;3.00;;;;;27.86;35.56;101750.94;4963149;28;47030;-72
2022/07/04 12:26:31;;;;;;;;;2.00;2.00;;;;;27.91;35.53;101751.28;5021742;28;45416;-72
2022/07/04 12:28:57;;;;;;;;;2.00;2.00;;;;;27.97;35.99;101755.19;4966293;28;45355;-71
2022/07/04 12:31:43;;;;;;;;;2.00;2.00;;;;;28.01;35.26;101746.50;4965251;28;45604;-72
2022/07/04 12:34:15;;;;;;;;;2.67;2.67;;;;;28.05;35.69;101749.72;4954881;28;45375;-72
2022/07/04 12:36:56;;;;;;;;;1.33;1.33;;;;;28.08;35.80;101751.25;4973060;27;45476;-72
2022/07/04 12:39:33;;;;;;;;;1.33;1.33;;;;;28.10;35.08;101736.41;4961213;28;47234;-72
2022/07/04 12:42:09;;;;;;;;;1.67;1.67;;;;;28.14;35.74;101740.47;4944343;28;46119;-72
2022/07/04 12:44:36;;;;;;;;;1.67;1.67;;;;;28.15;34.99;101731.25;4937933;28;46230;-73
2022/07/04 12:47:04;;;;;;;;;2.00;2.00;;;;;28.22;34.98;101731.41;4943493;28;47028;-73
2022/07/04 12:49:29;;;;;;;;;3.00;3.00;;;;;28.24;35.25;101740.28;4942156;28;45520;-72
2022/07/04 12:52:06;;;;;;;;;2.00;2.00;;;;;28.28;34.80;101735.31;4951671;28;45479;-72
2022/07/04 12:54:31;;;;;;;;;2.00;2.00;;;;;28.26;35.56;101729.19;4955373;28;45517;-73
2022/07/04 12:57:04;;;;;;;;;1.67;1.67;;;;;28.34;34.80;101737.34;4944041;28;45754;-73
2022/07/04 12:59:30;;;;;;;;;3.00;3.00;;;;;28.37;35.17;101728.78;4935950;28;47367;-73
2022/07/04 13:01:55;;;;;;;;;1.33;1.33;;;;;28.39;34.80;101721.28;4939739;28;45506;-72
2022/07/04 13:04:20;;;;;;;;;5.00;3.00;;;;;28.41;34.57;101726.59;4937877;28;47273;-72
2022/07/04 13:06:46;;;;;;;;;1.00;1.00;;;;;28.44;34.90;101733.56;4938909;28;45989;-72
2022/07/04 13:09:12;;;;;;;;;1.33;1.33;;;;;28.46;34.74;101720.56;4938243;28;45747;-72
2022/07/04 13:14:22;;;;;;;;;1.33;1.33;;;;;28.46;34.35;101715.97;4951434;28;45525;-72
2022/07/04 13:16:48;;;;;;;;;2.00;2.00;;;;;28.45;34.47;101711.56;4946416;28;46077;-71
2022/07/04 13:19:13;;;;;;;;;1.00;1.00;;;;;28.47;34.29;101722.25;4937818;28;45677;-72
2022/07/04 13:21:38;;;;;;;;;3.00;3.00;;;;;28.49;34.65;101721.06;4935605;28;47166;-71
2022/07/04 13:24:04;;;;;;;;;1.67;1.67;;;;;28.52;34.66;101720.72;4934864;28;45914;-71
2022/07/04 13:26:32;;;;;;;;;1.00;1.00;;;;;28.57;34.08;101713.88;4944631;28;47252;-72
2022/07/04 13:28:57;;;;;;;;;1.33;1.33;;;;;28.59;34.86;101718.13;4939116;28;45605;-73
2022/07/04 13:31:22;;;;;;;;;2.67;2.67;;;;;28.59;34.40;101712.66;4942344;28;46238;-72
2022/07/04 13:33:48;;;;;;;;;2.00;2.00;;;;;28.58;34.49;101710.09;4944285;28;46099;-74
2022/07/04 13:36:14;;;;;;;;;3.00;3.00;;;;;28.55;34.89;101703.13;4966597;28;45512;-74
2022/07/04 13:38:40;;;;;;;;;3.00;2.00;;;;;28.50;34.95;101706.41;4950574;28;48164;-73
2022/07/04 13:41:05;;;;;;;;;2.67;2.00;;;;;28.51;35.18;101708.09;4939357;28;47563;-72
2022/07/04 13:43:31;;;;;;;;;1.67;1.67;;;;;28.48;35.41;101715.81;4940497;28;45519;-73
2022/07/04 13:45:56;;;;;;;;;2.00;2.00;;;;;28.44;35.16;101709.81;4941909;28;45837;-72
2022/07/04 13:48:22;;;;;;;;;2.00;2.00;;;;;28.41;34.95;101708.31;4936481;28;47158;-72
2022/07/04 13:50:48;;;;;;;;;2.33;2.33;;;;;28.38;34.59;101705.94;4942247;28;47158;-73
2022/07/04 13:53:13;;;;;;;;;3.00;2.00;;;;;28.37;35.10;101697.94;4940748;28;45611;-73
2022/07/04 13:55:40;;;;;;;;;1.67;1.67;;;;;28.34;35.14;101699.13;4934583;28;45800;-72
2022/07/04 13:58:07;;;;;;;;;2.00;2.00;;;;;28.33;34.96;101694.72;4939726;28;47161;-72
2022/07/04 14:00:34;;;;;;;;;2.00;2.00;;;;;28.30;35.46;101686.88;4939752;28;46962;-74
2022/07/04 14:02:59;;;;;;;;;3.00;3.00;;;;;28.27;35.48;101692.69;4936631;28;45533;-73
2022/07/04 14:05:25;;;;;;;;;2.00;2.00;;;;;28.26;35.16;101693.72;4938613;28;45506;-74
2022/07/04 14:07:51;;;;;;;;;2.00;2.00;;;;;28.24;35.36;101695.75;4945873;28;45488;-73
2022/07/04 14:10:17;;;;;;;;;1.67;1.67;;;;;28.21;34.87;101693.38;4942469;28;45487;-73
2022/07/04 14:12:42;;;;;;;;;2.33;2.33;;;;;28.21;34.99;101694.22;4933920;28;47016;-76
2022/07/04 14:15:09;;;;;;;;;1.00;1.00;;;;;28.22;35.75;101697.78;4942680;28;47158;-72
2022/07/04 14:17:35;;;;;;;;;2.00;2.00;;;;;28.19;35.33;101693.53;4937889;28;46213;-71
2022/07/04 14:20:00;;;;;;;;;1.67;1.67;;;;;28.22;35.19;101698.66;4945170;28;46817;-72
2022/07/04 14:22:26;;;;;;;;;4.33;3.00;;;;;28.24;35.45;101691.16;4936741;28;46197;-72
2022/07/04 14:24:51;;;;;;;;;3.00;2.00;;;;;28.28;35.68;101678.00;4935562;28;47220;-73
2022/07/04 14:27:16;;;;;;;;;3.00;3.00;;;;;28.32;35.43;101679.34;4948034;28;45645;-74
2022/07/04 14:29:42;;;;;;;;;1.67;1.67;;;;;28.31;34.93;101679.56;4960791;28;45434;-74
2022/07/04 14:32:07;;;;;;;;;2.67;2.67;;;;;28.30;34.90;101681.41;4961540;28;45823;-74
2022/07/04 14:34:33;;;;;;;;;2.00;2.00;;;;;28.30;35.00;101683.28;4968468;28;45484;-74
2022/07/04 14:36:58;;;;;;;;;3.00;3.00;;;;;28.28;35.58;101675.25;4958813;28;45815;-74
2022/07/04 14:39:24;;;;;;;;;2.67;2.67;;;;;28.25;35.18;101675.66;4961066;28;45761;-73
2022/07/04 14:41:49;;;;;;;;;2.33;1.67;;;;;28.23;35.38;101670.31;4960067;28;46078;-73
2022/07/04 14:44:15;;;;;;;;;2.00;2.00;;;;;28.19;34.88;101671.69;4967145;28;45320;-73
2022/07/04 14:46:40;;;;;;;;;3.00;2.00;;;;;28.19;34.65;101666.25;4961016;28;45583;-73
2022/07/04 14:49:05;;;;;;;;;1.33;1.33;;;;;28.15;34.89;101670.34;4967143;28;48067;-74
2022/07/04 14:51:31;;;;;;;;;2.00;2.00;;;;;28.14;35.01;101665.94;4960851;28;45856;-74
2022/07/04 14:53:56;;;;;;;;;1.67;1.67;;;;;28.13;35.18;101669.69;4960389;28;45577;-74
2022/07/04 14:56:22;;;;;;;;;4.00;2.67;;;;;28.10;35.69;101662.72;4950934;28;45473;-72
2022/07/04 14:58:47;;;;;;;;;1.67;1.67;;;;;28.08;34.97;101661.19;4954502;28;45691;-72
2022/07/04 15:01:12;;;;;;;;;2.00;2.00;;;;;28.12;35.05;101654.34;4955404;28;48472;-72
2022/07/04 15:03:38;;;;;;;;;3.67;3.67;;;;;28.16;35.80;101655.72;4952148;28;50541;-72
2022/07/04 15:06:03;;;;;;;;;2.00;2.00;;;;;28.18;35.47;101652.78;4961051;28;45703;-71
2022/07/04 15:08:28;;;;;;;;;1.00;1.00;;;;;28.18;35.35;101650.91;4953091;28;47046;-72
2022/07/04 15:10:54;;;;;;;;;2.00;2.00;;;;;28.23;34.67;101647.63;4962284;28;46181;-71
2022/07/04 15:13:19;;;;;;;;;2.33;2.33;;;;;28.28;34.63;101656.16;4951343;28;47100;-71
2022/07/04 15:15:44;;;;;;;;;3.00;3.00;;;;;28.31;35.03;101652.25;4955625;28;45691;-72
2022/07/04 15:18:10;;;;;;;;;3.00;2.00;;;;;28.34;34.65;101658.19;4954466;28;45501;-71
2022/07/04 15:26:03;;;;;;;;;1.67;1.67;;;;;28.44;34.57;101646.19;4951938;28;47196;-71
2022/07/04 15:28:28;;;;;;;;;1.00;1.00;;;;;28.48;34.79;101639.34;4951710;28;45645;-72
2022/07/04 15:30:54;;;;;;;;;3.00;3.00;;;;;28.49;34.81;101636.41;4950558;28;46865;-70
2022/07/04 15:33:19;;;;;;;;;2.00;1.00;;;;;28.49;34.66;101622.75;4950190;28;45958;-70
2022/07/04 15:35:45;;;;;;;;;2.00;2.00;;;;;28.50;34.81;101629.09;4954067;28;45505;-69
2022/07/04 15:38:12;;;;;;;;;1.33;1.33;;;;;28.51;35.06;101623.44;4948918;28;45918;-69
2022/07/04 15:40:39;;;;;;;;;2.00;2.00;;;;;28.51;34.94;101628.91;4950565;28;46256;-69
2022/07/04 15:43:05;;;;;;;;;2.67;1.00;;;;;28.53;34.65;101634.19;4952994;28;47322;-70
2022/07/04 15:45:30;;;;;;;;;2.33;2.00;;;;;28.53;34.49;101632.28;4949677;28;45743;-71
2022/07/04 15:47:56;;;;;;;;;2.00;2.00;;;;;28.56;34.98;101625.63;4952016;28;45466;-72
2022/07/04 15:50:21;;;;;;;;;1.00;1.00;;;;;28.59;34.43;101619.81;4952500;28;64018;-71
2022/07/04 15:52:47;;;;;;;;;3.00;3.00;;;;;28.63;34.26;101618.41;4953674;28;45726;-72
2022/07/04 15:55:12;;;;;;;;;1.67;1.67;;;;;28.64;34.58;101611.06;4951654;28;47178;-71
2022/07/04 15:57:38;;;;;;;;;4.00;3.00;;;;;28.64;34.08;101621.97;4949139;28;45459;-71
2022/07/04 16:00:04;;;;;;;;;2.00;2.00;;;;;28.65;34.34;101607.31;4950705;28;46246;-70
2022/07/04 16:02:29;;;;;;;;;2.00;1.67;;;;;28.65;33.83;101616.34;4952160;28;45495;-70
2022/07/04 16:04:55;;;;;;;;;2.00;1.33;;;;;28.66;33.86;101614.47;4958539;28;45536;-69
2022/07/04 16:07:20;;;;;;;;;2.00;2.00;;;;;28.67;34.05;101614.28;4955965;28;45739;-69
2022/07/04 16:09:45;;;;;;;;;2.00;2.00;;;;;28.67;34.46;101611.56;4959213;28;45570;-69
2022/07/04 16:12:11;;;;;;;;;1.67;1.00;;;;;28.67;34.18;101610.69;4953425;28;47888;-70
2022/07/04 16:14:36;;;;;;;;;2.00;2.00;;;;;28.67;34.49;101619.75;4963021;28;45519;-69
2022/07/04 16:17:02;;;;;;;;;1.67;1.67;;;;;28.67;34.49;101611.56;4957625;28;45736;-69
2022/07/04 16:19:27;;;;;;;;;2.00;2.00;;;;;28.69;33.86;101607.78;4960527;28;46300;-69
2022/07/04 16:21:53;;;;;;;;;2.00;2.00;;;;;28.71;34.02;101612.03;4961605;28;45474;-72
2022/07/04 16:24:19;;;;;;;;;2.33;1.00;;;;;28.76;34.14;101609.59;4958195;28;47774;-70
2022/07/04 16:26:44;;;;;;;;;2.00;2.00;;;;;28.79;33.34;101617.44;4969519;28;45724;-71
2022/07/04 16:29:09;;;;;;;;;2.33;2.33;;;;;28.80;33.27;101610.94;4956675;28;45428;-72
2022/07/04 16:31:35;;;;;;;;;2.00;2.00;;;;;28.82;33.71;101613.50;4955231;28;45875;-72
2022/07/04 16:34:00;;;;;;;;;1.00;1.00;;;;;28.83;32.95;101615.19;4953801;28;45781;-70
2022/07/04 16:36:25;;;;;;;;;2.00;1.67;;;;;28.83;33.79;101612.44;4948453;28;45890;-70
2022/07/04 16:38:51;;;;;;;;;2.00;2.00;;;;;28.86;33.20;101611.22;4952820;28;46096;-70
2022/07/04 16:41:17;;;;;;;;;2.67;2.67;;;;;28.84;33.26;101614.13;4962692;28;49250;-69
2022/07/04 16:43:42;;;;;;;;;2.00;2.00;;;;;28.82;33.51;101618.97;4959304;28;54320;-69
2022/07/04 16:46:07;;;;;;;;;2.33;2.33;;;;;28.80;32.72;101621.88;4961964;28;45977;-72
2022/07/04 16:48:33;;;;;;;;;2.67;2.67;;;;;28.77;34.81;101619.50;4957117;28;45658;-71
2022/07/04 16:50:58;;;;;;;;;1.00;1.00;;;;;28.80;34.54;101612.81;4958296;28;45597;-71
2022/07/04 16:53:23;;;;;;;;;6.33;4.00;;;;;28.82;35.66;101605.28;4970144;28;45523;-87
2022/07/04 16:55:49;;;;;;;;;3.33;2.00;;;;;28.85;36.77;101604.06;4951843;28;48393;-82
2022/07/04 16:58:15;;;;;;;;;3.00;3.00;;;;;28.85;36.57;101606.81;4942813;28;47623;-82
2022/07/04 17:00:40;;;;;;;;;3.67;3.67;;;;;28.83;36.33;101601.53;4948991;28;46267;-77
2022/07/04 17:03:06;;;;;;;;;3.33;2.33;;;;;28.79;35.99;101602.91;4941835;28;45546;-81
2022/07/04 17:05:32;;;;;;;;;2.67;2.67;;;;;28.80;35.08;101607.34;4942155;28;47058;-82
2022/07/04 17:07:57;;;;;;;;;4.33;3.00;;;;;28.76;35.61;101606.00;4941821;28;48626;-84
2022/07/04 17:10:23;;;;;;;;;7.00;6.00;;;;;28.71;35.60;101601.09;4940872;28;47271;-80
2022/07/04 17:12:48;;;;;;;;;19.00;13.67;;;;;28.70;35.62;101602.16;4942350;28;47280;-78
2022/07/04 17:15:13;;;;;;;;;12.67;10.00;;;;;28.69;36.14;101603.16;4947315;28;47639;-76
2022/07/04 17:17:39;;;;;;;;;4.33;4.33;;;;;28.65;35.60;101601.84;4952208;28;47238;-77
2022/07/04 17:20:09;;;;;;;;;3.67;3.67;;;;;28.63;35.53;101598.44;4942619;28;46858;-77
2022/07/04 17:22:36;;;;;;;;;6.00;5.33;;;;;28.60;35.34;101601.56;4941133;28;47213;-75
2022/07/04 17:25:02;;;;;;;;;4.33;4.33;;;;;28.60;34.97;101604.28;4940862;28;46060;-75
2022/07/04 17:27:27;;;;;;;;;6.00;5.67;;;;;28.59;34.80;101605.28;4944683;28;46297;-77
2022/07/04 17:29:53;;;;;;;;;9.33;6.00;;;;;28.55;35.97;101599.34;4942977;28;47049;-77
2022/07/04 17:32:18;;;;;;;;;7.00;4.00;;;;;28.53;35.51;101605.00;4951567;28;46005;-78
2022/07/04 17:34:44;;;;;;;;;7.00;4.33;;;;;28.51;35.17;101603.47;4941725;28;47589;-77
2022/07/04 17:37:10;;;;;;;;;7.00;5.00;;;;;28.49;35.74;101600.91;4940177;28;45737;-78
2022/07/04 17:39:35;;;;;;;;;5.00;5.00;;;;;28.47;35.15;101605.72;4942797;28;47789;-78
2022/07/04 17:42:00;;;;;;;;;5.33;4.00;;;;;28.46;35.02;101597.72;4954364;28;45692;-78
2022/07/04 17:44:26;;;;;;;;;5.00;5.00;;;;;28.42;35.04;101594.50;4949294;28;45740;-78
2022/07/04 17:46:52;;;;;;;;;4.00;4.00;;;;;28.42;35.29;101602.69;4959427;28;46054;-78
2022/07/04 17:49:18;;;;;;;;;3.33;3.33;;;;;28.41;36.00;101592.81;4939661;28;47018;-78
2022/07/04 17:51:43;;;;;;;;;5.00;3.33;;;;;28.38;35.40;101598.63;4940459;28;45595;-78
2022/07/04 17:54:11;;;;;;;;;2.67;2.67;;;;;28.37;35.99;101588.72;4942713;28;45876;-78
2022/07/04 17:56:37;;;;;;;;;2.33;1.33;;;;;28.33;35.90;101590.13;4940857;28;46078;-78
2022/07/04 17:59:03;;;;;;;;;3.67;3.67;;;;;28.34;35.42;101595.41;4948728;28;45640;-78
2022/07/04 18:01:28;;;;;;;;;2.67;2.33;;;;;28.32;36.02;101596.63;4937805;28;46511;-77
2022/07/04 18:03:54;;;;;;;;;5.67;3.00;;;;;28.30;35.56;101599.53;4959736;27;45736;-79
2022/07/04 18:06:20;;;;;;;;;7.00;4.00;;;;;28.29;35.68;101595.09;4940391;28;46945;-79
2022/07/04 18:08:46;;;;;;;;;4.67;3.33;;;;;28.29;36.16;101603.28;4943779;28;45591;-79
2022/07/04 18:11:12;;;;;;;;;6.67;5.00;;;;;28.25;36.38;101596.50;5034456;27;47285;-79
2022/07/04 18:13:37;;;;;;;;;3.00;3.00;;;;;28.27;35.97;101600.75;4943350;28;46688;-79
2022/07/04 18:16:04;;;;;;;;;3.33;3.33;;;;;28.27;36.19;101605.34;4950173;28;48891;-78
2022/07/04 18:18:30;;;;;;;;;3.00;2.67;;;;;28.26;36.41;101609.09;4942960;28;46133;-78
2022/07/04 18:20:55;;;;;;;;;5.00;3.00;;;;;28.26;36.13;101611.81;4947046;28;45546;-78
2022/07/04 18:23:21;;;;;;;;;3.00;3.00;;;;;28.25;35.96;101616.44;4945899;28;45693;-79
2022/07/04 18:25:46;;;;;;;;;3.00;3.00;;;;;28.24;36.55;101611.16;4948464;28;46037;-78
2022/07/04 18:28:15;;;;;;;;;5.67;3.00;;;;;28.23;35.94;101615.75;4941770;28;45599;-78
2022/07/04 18:30:41;;;;;;;;;7.33;2.00;;;;;28.22;36.69;101618.63;4950025;28;46251;-78
2022/07/04 18:33:08;;;;;;;;;2.00;2.00;;;;;28.21;36.64;101622.41;4957061;28;45566;-79